MSC Luisa — H9XU — position and weather

sailwx.info

Track history (hours):
 
Tides and Currents Weather Stations Pressure Air Temp Water Temp Dewpoint Dewpoint Depression Visibility Wind Speed Wind Dir Waves Ship Positions

MSC Luisa

Last reported at 2015-Jul-09 05:29 UTC. Time now 2015-Aug-05 08:24 UTC.
Position S 24°23' W 045°52'.
Warning: this ship's position is 27 days out of date.

Length 300 m; draft 10.5 m.

Type: Ship. MMSI: 355308000.

Date/timePositionNaut miles runAvg speedWind from/ knotsBaromVisibWave heightAir tempDewpointWater temp
2015-Jul-09 05:29S 24°23' W 045°52'1515.6
2015-Jul-09 04:33S 24°26' W 046°08'1313.5
2015-Jul-09 03:33S 24°21' W 046°21'1515.1
2015-Jul-09 02:33S 24°06' W 046°23'9 8.5
2015-Jul-09 01:33S 23°59' W 046°17'5 2.3
2015-Jul-08 23:30S 23°55' W 046°21'0 0.0
2015-Jul-08 16:21S 23°55' W 046°21'0 0.0
2015-Jul-08 15:21S 23°55' W 046°21'0 0.0
2015-Jul-08 13:11S 23°55' W 046°21'0 0.0
2015-Jul-08 08:30S 23°55' W 046°21'0 0.0
2015-Jul-08 07:26S 23°55' W 046°21'0 0.0
2015-Jul-08 05:28S 23°55' W 046°21'0 0.0
2015-Jul-08 02:27S 23°55' W 046°21'0 0.0
2015-Jul-08 01:32S 23°55' W 046°21'4 4.4
2015-Jul-08 00:32S 23°58' W 046°17'7 7.6
2015-Jul-07 23:33S 24°05' W 046°22'7 7.0
2015-Jul-07 22:33S 24°11' W 046°24'7 7.0
2015-Jul-07 21:33S 24°18' W 046°26'4 3.8
2015-Jul-07 20:33S 24°22' W 046°26'1 0.9
2015-Jul-07 19:32S 24°21' W 046°25'3 3.2
2015-Jul-07 18:33S 24°24' W 046°27'4 3.7
2015-Jul-07 17:33S 24°20' W 046°26'4 4.0
2015-Jul-07 16:33S 24°19' W 046°22'5 5.3
2015-Jul-07 15:33S 24°24' W 046°22'5 4.9
2015-Jul-07 14:33S 24°23' W 046°27'7 6.6
2015-Jul-07 13:33S 24°17' W 046°23'6 6.3
2015-Jul-07 12:33S 24°23' W 046°21'6 5.7
2015-Jul-07 11:33S 24°22' W 046°27'4 4.4
2015-Jul-07 10:33S 24°18' W 046°27'2 2.0
2015-Jul-07 09:33S 24°19' W 046°25'2 1.9
2015-Jul-07 08:33S 24°20' W 046°27'10 9.9
2015-Jul-07 07:34S 24°29' W 046°30'1616.2
2015-Jul-07 06:33S 24°41' W 046°43'  
2015-Jul-03 09:18S 26°56' W 048°28'0 0.1
2015-Jul-03 08:30S 26°56' W 048°28'0 0.0
2015-Jul-03 07:29S 26°56' W 048°28'0 0.0
2015-Jul-03 06:17S 26°56' W 048°28'0 0.0
2015-Jul-03 05:28S 26°56' W 048°28'0 0.0
2015-Jul-03 03:21S 26°56' W 048°28'0 0.0
2015-Jul-03 00:08S 26°56' W 048°28'0 0.0
2015-Jul-02 23:14S 26°56' W 048°28'0 0.0
2015-Jul-02 22:19S 26°56' W 048°28'0 0.0
2015-Jul-02 21:31S 26°56' W 048°28'0 0.0
2015-Jul-02 20:30S 26°56' W 048°28'0 0.0
2015-Jul-02 19:18S 26°56' W 048°28'0 0.0
2015-Jul-02 18:29S 26°56' W 048°28'0 0.0
2015-Jul-02 17:29S 26°56' W 048°28'0 0.0
2015-Jul-02 16:17S 26°56' W 048°28'0 0.0
2015-Jul-02 15:28S 26°56' W 048°28'0 0.0
2015-Jul-02 14:28S 26°56' W 048°28'0 0.0
2015-Jul-02 13:33S 26°56' W 048°28'0 0.0
2015-Jul-02 10:20S 26°56' W 048°28'0 0.0
2015-Jul-02 09:33S 26°56' W 048°28'0 0.0
2015-Jul-02 08:31S 26°56' W 048°28'0 0.0
2015-Jul-02 06:06S 26°56' W 048°28'0 0.0
2015-Jul-02 01:28S 26°56' W 048°28'0 0.0
2015-Jul-02 00:22S 26°56' W 048°28'0 0.0
2015-Jul-01 23:33S 26°56' W 048°28'0 0.0
2015-Jul-01 22:27S 26°56' W 048°28'0 0.0
2015-Jul-01 20:10S 26°56' W 048°28'0 0.0
2015-Jul-01 19:16S 26°56' W 048°28'0 0.0
2015-Jul-01 17:21S 26°56' W 048°28'0 0.0
2015-Jul-01 16:27S 26°56' W 048°28'0 0.0
2015-Jul-01 15:26S 26°56' W 048°28'0 0.0
2015-Jul-01 14:26S 26°56' W 048°28'0 0.0
2015-Jul-01 13:31S 26°56' W 048°28'0 0.0
2015-Jul-01 12:31S 26°56' W 048°28'0 0.0
2015-Jul-01 06:16S 26°56' W 048°28'0 0.0
2015-Jul-01 05:28S 26°56' W 048°28'0 0.0
2015-Jul-01 04:28S 26°56' W 048°28'0 0.0
2015-Jul-01 03:33S 26°56' W 048°28'0 0.0
2015-Jul-01 02:33S 26°56' W 048°28'0 0.0
2015-Jul-01 01:32S 26°56' W 048°28'0 0.0
2015-Jul-01 00:32S 26°56' W 048°28'0 0.0
2015-Jun-30 23:31S 26°56' W 048°28'0 0.0
2015-Jun-30 21:31S 26°56' W 048°28'0 0.0
2015-Jun-30 20:12S 26°56' W 048°28'0 0.0
2015-Jun-30 19:18S 26°56' W 048°28'0 0.0
2015-Jun-30 18:23S 26°56' W 048°28'0 0.0
2015-Jun-30 17:29S 26°56' W 048°28'0 0.0
2015-Jun-30 16:28S 26°56' W 048°28'0 0.0
2015-Jun-30 14:28S 26°56' W 048°28'0 0.0
2015-Jun-30 13:33S 26°56' W 048°28'0 0.0
2015-Jun-30 07:24S 26°56' W 048°28'0 0.0
2015-Jun-30 06:30S 26°56' W 048°28'0 0.0
2015-Jun-30 05:30S 26°56' W 048°28'0 0.0
2015-Jun-30 04:23S 26°56' W 048°28'0 0.0
2015-Jun-30 02:28S 26°56' W 048°28'0 0.0
2015-Jun-30 00:27S 26°56' W 048°28'0 0.0
2015-Jun-29 22:33S 26°56' W 048°28'0 0.0
2015-Jun-29 21:32S 26°56' W 048°28'0 0.0
2015-Jun-29 20:32S 26°56' W 048°28'0 0.1
2015-Jun-29 19:33S 26°56' W 048°28'2310.6
2015-Jun-29 17:21S 27°14' W 048°11'1113.7
2015-Jun-29 16:33S 27°25' W 048°11'1413.8
2015-Jun-29 15:33S 27°39' W 048°11'1413.7
2015-Jun-29 14:33S 27°52' W 048°11'  
Track history (hours):
 
Tides and Currents Weather Stations Pressure Air Temp Water Temp Dewpoint Dewpoint Depression Visibility Wind Speed Wind Dir Waves Ship Positions

MSC Luisa

Last reported at 2015-Jul-09 05:29 UTC. Time now 2015-Aug-05 08:24 UTC.
Position S 24°23' W 045°52'.
Warning: this ship's position is 27 days out of date.

Length 300 m; draft 10.5 m.

Type: Ship. MMSI: 355308000.

Date/timePositionNaut miles runAvg speedWind from/ knotsBaromVisibWave heightAir tempDewpointWater temp
2015-Jul-09 05:29S 24°23' W 045°52'1515.6
2015-Jul-09 04:33S 24°26' W 046°08'1313.5
2015-Jul-09 03:33S 24°21' W 046°21'1515.1
2015-Jul-09 02:33S 24°06' W 046°23'9 8.5
2015-Jul-09 01:33S 23°59' W 046°17'5 2.3
2015-Jul-08 23:30S 23°55' W 046°21'0 0.0
2015-Jul-08 16:21S 23°55' W 046°21'0 0.0
2015-Jul-08 15:21S 23°55' W 046°21'0 0.0
2015-Jul-08 13:11S 23°55' W 046°21'0 0.0
2015-Jul-08 08:30S 23°55' W 046°21'0 0.0
2015-Jul-08 07:26S 23°55' W 046°21'0 0.0
2015-Jul-08 05:28S 23°55' W 046°21'0 0.0
2015-Jul-08 02:27S 23°55' W 046°21'0 0.0
2015-Jul-08 01:32S 23°55' W 046°21'4 4.4
2015-Jul-08 00:32S 23°58' W 046°17'7 7.6
2015-Jul-07 23:33S 24°05' W 046°22'7 7.0
2015-Jul-07 22:33S 24°11' W 046°24'7 7.0
2015-Jul-07 21:33S 24°18' W 046°26'4 3.8
2015-Jul-07 20:33S 24°22' W 046°26'1 0.9
2015-Jul-07 19:32S 24°21' W 046°25'3 3.2
2015-Jul-07 18:33S 24°24' W 046°27'4 3.7
2015-Jul-07 17:33S 24°20' W 046°26'4 4.0
2015-Jul-07 16:33S 24°19' W 046°22'5 5.3
2015-Jul-07 15:33S 24°24' W 046°22'5 4.9
2015-Jul-07 14:33S 24°23' W 046°27'7 6.6
2015-Jul-07 13:33S 24°17' W 046°23'6 6.3
2015-Jul-07 12:33S 24°23' W 046°21'6 5.7
2015-Jul-07 11:33S 24°22' W 046°27'4 4.4
2015-Jul-07 10:33S 24°18' W 046°27'2 2.0
2015-Jul-07 09:33S 24°19' W 046°25'2 1.9
2015-Jul-07 08:33S 24°20' W 046°27'10 9.9
2015-Jul-07 07:34S 24°29' W 046°30'1616.2
2015-Jul-07 06:33S 24°41' W 046°43'  
2015-Jul-03 09:18S 26°56' W 048°28'0 0.1
2015-Jul-03 08:30S 26°56' W 048°28'0 0.0
2015-Jul-03 07:29S 26°56' W 048°28'0 0.0
2015-Jul-03 06:17S 26°56' W 048°28'0 0.0
2015-Jul-03 05:28S 26°56' W 048°28'0 0.0
2015-Jul-03 03:21S 26°56' W 048°28'0 0.0
2015-Jul-03 00:08S 26°56' W 048°28'0 0.0
2015-Jul-02 23:14S 26°56' W 048°28'0 0.0
2015-Jul-02 22:19S 26°56' W 048°28'0 0.0
2015-Jul-02 21:31S 26°56' W 048°28'0 0.0
2015-Jul-02 20:30S 26°56' W 048°28'0 0.0
2015-Jul-02 19:18S 26°56' W 048°28'0 0.0
2015-Jul-02 18:29S 26°56' W 048°28'0 0.0
2015-Jul-02 17:29S 26°56' W 048°28'0 0.0
2015-Jul-02 16:17S 26°56' W 048°28'0 0.0
2015-Jul-02 15:28S 26°56' W 048°28'0 0.0
2015-Jul-02 14:28S 26°56' W 048°28'0 0.0
2015-Jul-02 13:33S 26°56' W 048°28'0 0.0
2015-Jul-02 10:20S 26°56' W 048°28'0 0.0
2015-Jul-02 09:33S 26°56' W 048°28'0 0.0
2015-Jul-02 08:31S 26°56' W 048°28'0 0.0
2015-Jul-02 06:06S 26°56' W 048°28'0 0.0
2015-Jul-02 01:28S 26°56' W 048°28'0 0.0
2015-Jul-02 00:22S 26°56' W 048°28'0 0.0
2015-Jul-01 23:33S 26°56' W 048°28'0 0.0
2015-Jul-01 22:27S 26°56' W 048°28'0 0.0
2015-Jul-01 20:10S 26°56' W 048°28'0 0.0
2015-Jul-01 19:16S 26°56' W 048°28'0 0.0
2015-Jul-01 17:21S 26°56' W 048°28'0 0.0
2015-Jul-01 16:27S 26°56' W 048°28'0 0.0
2015-Jul-01 15:26S 26°56' W 048°28'0 0.0
2015-Jul-01 14:26S 26°56' W 048°28'0 0.0
2015-Jul-01 13:31S 26°56' W 048°28'0 0.0
2015-Jul-01 12:31S 26°56' W 048°28'0 0.0
2015-Jul-01 06:16S 26°56' W 048°28'0 0.0
2015-Jul-01 05:28S 26°56' W 048°28'0 0.0
2015-Jul-01 04:28S 26°56' W 048°28'0 0.0
2015-Jul-01 03:33S 26°56' W 048°28'0 0.0
2015-Jul-01 02:33S 26°56' W 048°28'0 0.0
2015-Jul-01 01:32S 26°56' W 048°28'0 0.0
2015-Jul-01 00:32S 26°56' W 048°28'0 0.0
2015-Jun-30 23:31S 26°56' W 048°28'0 0.0
2015-Jun-30 21:31S 26°56' W 048°28'0 0.0
2015-Jun-30 20:12S 26°56' W 048°28'0 0.0
2015-Jun-30 19:18S 26°56' W 048°28'0 0.0
2015-Jun-30 18:23S 26°56' W 048°28'0 0.0
2015-Jun-30 17:29S 26°56' W 048°28'0 0.0
2015-Jun-30 16:28S 26°56' W 048°28'0 0.0
2015-Jun-30 14:28S 26°56' W 048°28'0 0.0
2015-Jun-30 13:33S 26°56' W 048°28'0 0.0
2015-Jun-30 07:24S 26°56' W 048°28'0 0.0
2015-Jun-30 06:30S 26°56' W 048°28'0 0.0
2015-Jun-30 05:30S 26°56' W 048°28'0 0.0
2015-Jun-30 04:23S 26°56' W 048°28'0 0.0
2015-Jun-30 02:28S 26°56' W 048°28'0 0.0
2015-Jun-30 00:27S 26°56' W 048°28'0 0.0
2015-Jun-29 22:33S 26°56' W 048°28'0 0.0
2015-Jun-29 21:32S 26°56' W 048°28'0 0.0
2015-Jun-29 20:32S 26°56' W 048°28'0 0.1
2015-Jun-29 19:33S 26°56' W 048°28'2310.6
2015-Jun-29 17:21S 27°14' W 048°11'1113.7
2015-Jun-29 16:33S 27°25' W 048°11'1413.8
2015-Jun-29 15:33S 27°39' W 048°11'1413.7
2015-Jun-29 14:33S 27°52' W 048°11'  

Dump ship's entire track history